Time;durP1;ratioP1;P1;durP2;ratioP2;P2;SDS_P1;SDS_P2;PMS_P1;PMS_P2;Temp;Humidity;BMP_temperature;BMP_pressure;BME280_temperature;BME280_humidity;BME280_pressure;Samples;Min_cycle;Max_cycle;Signal;HPM_P1;HPM_P2
2022/11/16 00:00:21;;;;;;;95.60;77.40;;;;;;;5.63;70.93;94669.09;5064178;28;20265;-68
2022/11/16 00:02:50;;;;;;;93.73;75.07;;;;;;;5.67;71.21;94664.47;5069327;28;20189;-68
2022/11/16 00:05:19;;;;;;;91.57;75.83;;;;;;;5.75;71.37;94668.06;5073177;28;20184;-68
2022/11/16 00:07:44;;;;;;;91.77;75.30;;;;;;;5.75;71.58;94665.44;5056219;28;20231;-68
2022/11/16 00:10:10;;;;;;;102.77;77.60;;;;;;;5.86;71.61;94668.94;5077846;28;20200;-68
2022/11/16 00:12:37;;;;;;;95.63;78.57;;;;;;;5.90;71.50;94662.47;5057857;28;20234;-68
2022/11/16 00:15:03;;;;;;;102.10;77.40;;;;;;;5.97;71.32;94663.63;5060148;28;20185;-68
2022/11/16 00:17:29;;;;;;;93.93;77.80;;;;;;;5.98;70.82;94667.88;5065367;28;20184;-67
2022/11/16 00:19:54;;;;;;;95.83;76.07;;;;;;;5.94;71.16;94656.06;5062477;28;20211;-67
2022/11/16 00:22:19;;;;;;;93.20;75.10;;;;;;;5.97;71.21;94661.84;5058998;28;20193;-67
2022/11/16 00:24:45;;;;;;;95.50;75.83;;;;;;;5.97;70.70;94658.41;5071587;28;20192;-67
2022/11/16 00:27:11;;;;;;;98.93;80.37;;;;;;;5.89;71.09;94661.66;5067802;28;20637;-67
2022/11/16 00:29:36;;;;;;;122.20;97.43;;;;;;;5.75;70.90;94652.41;5064042;28;20618;-68
2022/11/16 00:32:02;;;;;;;123.30;98.80;;;;;;;5.71;71.17;94651.00;5062657;28;20279;-66
2022/11/16 00:34:27;;;;;;;120.87;95.17;;;;;;;5.61;71.27;94646.69;5064231;28;20184;-67
2022/11/16 00:36:52;;;;;;;107.07;89.13;;;;;;;5.64;70.97;94644.66;5066433;28;20213;-67
2022/11/16 00:39:19;;;;;;;110.30;85.37;;;;;;;5.73;70.94;94649.09;5065292;28;20183;-67
2022/11/16 00:41:45;;;;;;;110.03;87.50;;;;;;;5.73;70.27;94653.50;5066177;28;20234;-67
2022/11/16 00:44:12;;;;;;;109.17;83.07;;;;;;;5.70;70.73;94644.13;5066360;28;20189;-67
2022/11/16 00:46:37;;;;;;;110.30;88.47;;;;;;;5.52;70.93;94643.09;5063212;28;20199;-68
2022/11/16 00:49:04;;;;;;;102.53;82.93;;;;;;;5.34;71.71;94642.03;5062315;28;20188;-67
2022/11/16 00:51:30;;;;;;;113.17;89.83;;;;;;;5.50;71.33;94642.38;5065185;28;20192;-69
2022/11/16 00:53:55;;;;;;;114.37;87.10;;;;;;;5.54;70.65;94643.78;5066559;28;20188;-68
2022/11/16 00:56:21;;;;;;;102.20;82.47;;;;;;;5.63;70.42;94637.78;5060152;28;20186;-68
2022/11/16 00:58:46;;;;;;;107.60;83.50;;;;;;;5.87;69.90;94639.25;5073985;28;20217;-67
2022/11/16 01:01:12;;;;;;;110.07;82.63;;;;;;;5.74;69.94;94623.81;5070620;28;20265;-68
2022/11/16 01:03:38;;;;;;;93.03;74.93;;;;;;;5.66;70.69;94624.47;5067379;28;20207;-68
2022/11/16 01:06:06;;;;;;;91.83;75.30;;;;;;;5.61;71.30;94624.03;5070813;28;20184;-68
2022/11/16 01:08:33;;;;;;;88.30;69.97;;;;;;;5.65;71.78;94622.03;5063329;28;20181;-67
2022/11/16 01:12:07;;;;;;;87.53;68.27;;;;;;;5.73;71.63;94611.75;5069858;28;20212;-67
2022/11/16 01:13:44;;;;;;;101.57;78.67;;;;;;;5.63;71.39;94614.31;5081436;28;20192;-67
2022/11/16 01:16:14;;;;;;;95.50;78.97;;;;;;;5.55;71.37;94614.16;5066088;28;20513;-66
2022/11/16 01:18:39;;;;;;;96.37;76.40;;;;;;;5.49;71.68;94604.25;5064860;28;20196;-67
2022/11/16 01:21:05;;;;;;;108.83;81.23;;;;;;;5.28;71.60;94601.69;5065686;28;20205;-67
2022/11/16 01:23:31;;;;;;;101.93;84.77;;;;;;;5.29;71.53;94593.75;5070054;28;20185;-67
2022/11/16 01:26:00;;;;;;;97.53;79.03;;;;;;;5.24;71.27;94595.09;5071239;28;20199;-68
2022/11/16 01:28:27;;;;;;;99.23;80.60;;;;;;;5.25;70.94;94600.16;5080445;28;20188;-67
2022/11/16 01:30:52;;;;;;;91.77;77.40;;;;;;;5.12;71.58;94611.75;5075708;28;20187;-68
2022/11/16 01:33:18;;;;;;;92.53;75.00;;;;;;;5.14;71.13;94599.41;5067875;28;20196;-67
2022/11/16 01:35:43;;;;;;;85.33;73.53;;;;;;;5.22;70.78;94597.81;5065598;28;20188;-68
2022/11/16 01:38:09;;;;;;;92.33;74.77;;;;;;;5.16;70.85;94593.13;5071224;28;20192;-67
2022/11/16 01:40:36;;;;;;;93.13;75.93;;;;;;;5.18;70.45;94601.63;5082594;28;20205;-68
2022/11/16 01:43:02;;;;;;;87.47;72.87;;;;;;;5.14;70.97;94595.03;5068642;28;20304;-68
2022/11/16 01:45:40;;;;;;;92.07;76.83;;;;;;;5.16;70.84;94593.13;5065041;28;20255;-68
2022/11/16 01:48:06;;;;;;;93.20;77.73;;;;;;;5.19;70.93;94597.25;5080005;28;20189;-68
2022/11/16 01:50:32;;;;;;;91.90;73.73;;;;;;;5.13;71.01;94590.75;5063505;28;20172;-68
2022/11/16 01:53:01;;;;;;;87.43;71.13;;;;;;;5.17;71.04;94594.75;5065306;28;20188;-68
2022/11/16 01:55:29;;;;;;;81.77;65.97;;;;;;;4.93;71.33;94602.03;5066807;28;20192;-68
2022/11/16 01:57:55;;;;;;;79.40;64.57;;;;;;;4.93;71.08;94594.22;5068670;28;20192;-68
2022/11/16 02:00:21;;;;;;;81.70;63.17;;;;;;;4.94;71.45;94588.03;5066608;28;20268;-68
2022/11/16 02:02:46;;;;;;;76.10;62.43;;;;;;;4.84;71.34;94588.81;5081571;28;20283;-68
2022/11/16 02:05:16;;;;;;;76.47;61.17;;;;;;;4.89;71.72;94590.19;5083379;28;20185;-68
2022/11/16 02:11:05;;;;;;;73.50;58.23;;;;;;;5.06;71.04;94581.81;5084902;28;20294;-68
2022/11/16 02:13:40;;;;;;;73.27;55.20;;;;;;;4.95;71.09;94568.88;5039449;28;20216;-68
2022/11/16 02:16:18;;;;;;;69.77;54.57;;;;;;;4.88;70.47;94575.53;5045239;28;20186;-68
2022/11/16 02:19:05;;;;;;;66.83;52.67;;;;;;;4.89;70.73;94567.56;5044938;28;20181;-68
2022/11/16 02:21:34;;;;;;;68.90;54.27;;;;;;;4.84;70.38;94570.59;5041349;28;20539;-68
2022/11/16 02:24:18;;;;;;;68.53;54.23;;;;;;;4.76;70.90;94570.41;5042853;28;20244;-68
2022/11/16 02:27:07;;;;;;;67.43;54.23;;;;;;;4.85;70.53;94568.81;5043930;28;20215;-68
2022/11/16 02:29:46;;;;;;;68.93;54.67;;;;;;;4.62;71.39;94573.28;5048858;28;20208;-67
2022/11/16 02:32:37;;;;;;;71.30;52.80;;;;;;;4.46;72.12;94567.69;5046646;28;20186;-67
2022/11/16 02:35:27;;;;;;;75.03;55.00;;;;;;;4.55;72.00;94572.16;5041029;28;20193;-67
2022/11/16 02:38:05;;;;;;;75.80;55.27;;;;;;;4.62;72.22;94568.09;5040680;28;20195;-67
2022/11/16 02:40:34;;;;;;;80.40;53.57;;;;;;;4.67;72.27;94560.72;5046946;28;20209;-67
2022/11/16 02:43:07;;;;;;;80.73;55.90;;;;;;;4.49;73.04;94559.63;5046667;28;20213;-67
2022/11/16 02:45:36;;;;;;;75.17;54.43;;;;;;;4.57;73.42;94555.47;5041065;28;20189;-67
2022/11/16 02:48:12;;;;;;;81.80;56.27;;;;;;;4.55;73.40;94554.75;5045254;28;20210;-67
2022/11/16 02:50:38;;;;;;;72.57;53.13;;;;;;;4.53;73.53;94558.44;5041544;28;20190;-67
2022/11/16 02:53:04;;;;;;;78.30;55.57;;;;;;;4.54;73.53;94554.88;5040897;28;20257;-67
2022/11/16 02:55:33;;;;;;;75.70;54.40;;;;;;;4.52;74.31;94556.81;5047416;28;20190;-68
2022/11/16 02:58:01;;;;;;;76.73;54.03;;;;;;;4.51;74.74;94547.31;5041652;28;20222;-68
2022/11/16 03:00:34;;;;;;;90.17;55.57;;;;;;;4.65;74.54;94552.22;5045292;28;20198;-67
2022/11/16 03:03:10;;;;;;;99.97;53.43;;;;;;;4.80;73.47;94555.34;5043873;28;20251;-68
2022/11/16 03:05:42;;;;;;;77.07;53.53;;;;;;;4.53;74.75;94555.84;5043492;28;20190;-68
2022/11/16 03:08:07;;;;;;;80.00;54.67;;;;;;;4.43;75.48;94543.56;5059406;28;20224;-69
2022/11/16 03:13:25;;;;;;;83.13;55.63;;;;;;;4.59;75.90;94542.31;5059890;28;20273;-69
2022/11/16 03:15:54;;;;;;;92.77;53.73;;;;;;;4.61;75.75;94535.19;5060587;28;20183;-69
2022/11/16 03:18:22;;;;;;;131.07;54.30;;;;;;;4.53;76.01;94535.00;5065816;28;20196;-69
2022/11/16 03:20:52;;;;;;;93.60;57.87;;;;;;;4.56;76.31;94537.34;5071172;28;20263;-69
2022/11/16 03:23:18;;;;;;;82.43;54.87;;;;;;;4.61;75.99;94530.00;5068425;28;20193;-70
2022/11/16 03:25:54;;;;;;;107.43;56.33;;;;;;;4.72;75.75;94540.34;5060797;28;20235;-69
2022/11/16 03:28:34;;;;;;;87.43;55.20;;;;;;;4.75;75.29;94539.25;5071258;28;20277;-69
2022/11/16 03:31:11;;;;;;;90.83;50.67;;;;;;;4.74;75.22;94530.63;5072139;28;20183;-69
2022/11/16 03:33:44;;;;;;;70.47;50.23;;;;;;;4.48;76.18;94540.59;5072472;28;20184;-68
2022/11/16 03:36:20;;;;;;;74.10;51.87;;;;;;;4.45;76.76;94529.63;5065453;28;20254;-68
2022/11/16 03:38:49;;;;;;;86.67;48.80;;;;;;;4.61;76.75;94527.38;5071438;28;20263;-68
2022/11/16 03:41:17;;;;;;;75.97;49.93;;;;;;;4.68;76.07;94538.97;5067782;28;20196;-69
2022/11/16 03:43:43;;;;;;;71.07;48.20;;;;;;;4.53;76.32;94529.81;5075754;28;20208;-69
2022/11/16 03:46:10;;;;;;;62.90;46.80;;;;;;;4.53;76.54;94522.00;5068174;28;20214;-69
2022/11/16 03:48:38;;;;;;;71.17;47.00;;;;;;;4.61;76.46;94536.03;5070380;28;20246;-69
2022/11/16 03:51:05;;;;;;;65.17;47.03;;;;;;;4.57;76.54;94537.25;5063136;28;20173;-69
2022/11/16 03:53:31;;;;;;;72.43;47.73;;;;;;;4.54;76.67;94537.47;5067406;28;20219;-68
2022/11/16 03:55:56;;;;;;;83.67;47.70;;;;;;;4.52;76.74;94535.97;5071067;28;20201;-69
2022/11/16 03:58:22;;;;;;;60.83;47.40;;;;;;;4.45;77.18;94527.00;5064645;28;20220;-67
2022/11/16 04:00:47;;;;;;;63.90;47.03;;;;;;;4.48;77.53;94518.94;5063263;28;20192;-67
2022/11/16 04:03:13;;;;;;;61.93;46.87;;;;;;;4.55;77.11;94514.88;5059970;28;20205;-68
2022/11/16 04:25:08;;;;;;;54.73;44.07;;;;;;;4.67;75.99;94493.00;5083848;28;20346;-67
2022/11/16 04:30:18;;;;;;;54.40;44.53;;;;;;;4.82;75.23;94496.94;5083187;28;20312;-68
2022/11/16 04:37:56;;;;;;;54.50;42.37;;;;;;;4.67;75.17;94487.00;5077313;28;20196;-67
2022/11/16 04:40:28;;;;;;;51.97;41.57;;;;;;;4.66;75.32;94490.56;5064879;28;20231;-67
2022/11/16 04:42:58;;;;;;;54.10;43.40;;;;;;;4.90;74.78;94493.69;5067140;28;20183;-68
2022/11/16 04:48:09;;;;;;;56.77;43.27;;;;;;;4.73;75.23;94497.72;5082514;28;20284;-67
2022/11/16 04:50:35;;;;;;;53.83;42.67;;;;;;;4.79;74.90;94502.41;5074324;28;20192;-67
2022/11/16 04:53:01;;;;;;;53.63;43.03;;;;;;;4.76;75.17;94496.66;5083882;28;20195;-68
2022/11/16 04:55:27;;;;;;;63.57;45.87;;;;;;;4.88;75.17;94492.16;5071646;28;20605;-67
2022/11/16 04:57:53;;;;;;;61.37;46.23;;;;;;;4.80;75.33;94487.59;5074448;28;20199;-67
2022/11/16 05:00:18;;;;;;;55.17;44.00;;;;;;;4.85;75.32;94483.66;5068494;28;20207;-67
2022/11/16 05:02:44;;;;;;;56.77;43.80;;;;;;;4.92;74.71;94483.97;5081418;28;20214;-67
2022/11/16 05:05:10;;;;;;;55.37;43.07;;;;;;;4.71;75.23;94489.22;5072237;28;20219;-68
2022/11/16 05:07:35;;;;;;;62.53;45.57;;;;;;;4.76;75.62;94488.84;5075848;28;20192;-67
2022/11/16 05:10:02;;;;;;;63.17;46.13;;;;;;;4.69;75.72;94488.50;5077106;28;20247;-70
2022/11/16 05:12:29;;;;;;;59.33;45.17;;;;;;;4.72;75.86;94479.63;5064538;28;20309;-68
2022/11/16 05:14:54;;;;;;;58.93;46.67;;;;;;;4.70;75.81;94486.72;5063202;28;20196;-68
2022/11/16 05:17:21;;;;;;;59.67;46.10;;;;;;;4.67;76.23;94479.19;5062313;28;20226;-67
2022/11/16 05:22:31;;;;;;;57.50;44.37;;;;;;;4.78;75.70;94485.13;5060866;28;20238;-67
2022/11/16 05:24:56;;;;;;;60.67;46.20;;;;;;;4.84;75.33;94482.00;5065810;28;20575;-68
2022/11/16 05:27:23;;;;;;;63.33;47.00;;;;;;;4.60;76.05;94474.50;5066754;28;20189;-67
2022/11/16 05:29:49;;;;;;;58.90;44.93;;;;;;;4.80;75.88;94482.41;5066066;28;20373;-67
2022/11/16 05:32:15;;;;;;;58.37;44.77;;;;;;;4.88;75.34;94482.56;5062050;28;20185;-67
2022/11/16 05:34:41;;;;;;;60.70;45.23;;;;;;;5.01;74.80;94485.78;5064328;28;20193;-67
2022/11/16 05:37:07;;;;;;;55.77;43.03;;;;;;;4.98;75.36;94478.22;5062576;28;20204;-68
2022/11/16 05:39:33;;;;;;;57.27;43.50;;;;;;;5.04;74.81;94482.91;5062748;28;20212;-68
2022/11/16 05:41:58;;;;;;;61.83;46.30;;;;;;;5.04;75.11;94480.31;5059090;28;20232;-68
2022/11/16 05:44:24;;;;;;;56.97;46.40;;;;;;;5.03;74.92;94485.66;5061164;28;20191;-68
2022/11/16 05:46:50;;;;;;;60.73;47.50;;;;;;;5.19;74.91;94478.19;5043693;28;20192;-68
2022/11/16 05:49:16;;;;;;;63.47;48.00;;;;;;;5.14;74.96;94476.94;5065333;28;20223;-68
2022/11/16 05:51:43;;;;;;;61.07;47.70;;;;;;;5.11;75.03;94475.41;5062230;28;20222;-69
2022/11/16 05:54:14;;;;;;;59.07;45.80;;;;;;;5.17;75.38;94481.88;5061212;28;20198;-71
2022/11/16 05:56:39;;;;;;;60.43;44.53;;;;;;;5.13;75.31;94478.69;5057428;28;20200;-71
2022/11/16 05:59:05;;;;;;;63.97;46.90;;;;;;;5.08;75.35;94478.28;5062867;28;20185;-71
2022/11/16 06:01:31;;;;;;;61.03;47.60;;;;;;;5.18;74.66;94483.50;5061224;28;20208;-71
2022/11/16 06:04:00;;;;;;;64.53;48.90;;;;;;;5.28;74.82;94484.38;5062710;28;20189;-71
2022/11/16 06:06:26;;;;;;;64.90;47.90;;;;;;;5.36;74.72;94481.91;5063213;28;20315;-71
2022/11/16 06:08:52;;;;;;;62.67;47.00;;;;;;;5.50;74.09;94491.16;5062555;28;20198;-72
2022/11/16 06:11:17;;;;;;;63.83;47.60;;;;;;;5.55;74.18;94488.97;5067162;28;20235;-71
2022/11/16 06:13:43;;;;;;;64.17;46.10;;;;;;;5.50;74.14;94478.94;5062273;28;20272;-72
2022/11/16 06:16:09;;;;;;;65.17;46.73;;;;;;;5.60;73.60;94481.56;5067104;28;20211;-72
2022/11/16 06:18:39;;;;;;;63.53;45.90;;;;;;;5.49;73.56;94479.91;5066479;28;20184;-69
2022/11/16 06:21:06;;;;;;;67.40;47.90;;;;;;;5.45;74.18;94485.50;5062891;28;20232;-69
2022/11/16 06:23:32;;;;;;;63.53;47.37;;;;;;;5.53;73.56;94490.88;5064154;28;20185;-67
2022/11/16 06:25:58;;;;;;;62.57;45.07;;;;;;;5.57;73.61;94479.22;5072637;28;20185;-70
2022/11/16 06:28:23;;;;;;;63.03;45.80;;;;;;;5.60;73.54;94488.56;5072162;28;20219;-67
2022/11/16 06:30:49;;;;;;;60.83;45.17;;;;;;;5.60;73.17;94476.34;5068868;28;20312;-68
2022/11/16 06:33:15;;;;;;;55.43;41.33;;;;;;;5.77;73.07;94481.84;5072236;28;20192;-68
2022/11/16 06:35:41;;;;;;;60.00;42.97;;;;;;;5.79;72.82;94479.94;5069322;28;20278;-69
2022/11/16 06:38:07;;;;;;;63.27;46.87;;;;;;;5.65;73.48;94489.00;5066928;28;20208;-68
2022/11/16 06:40:32;;;;;;;62.40;46.83;;;;;;;5.66;73.17;94485.41;5071506;28;20341;-68
2022/11/16 06:45:52;;;;;;;62.27;46.27;;;;;;;5.83;72.89;94468.28;5088047;28;20195;-69
2022/11/16 06:48:18;;;;;;;63.57;44.53;;;;;;;5.82;72.98;94482.28;5069211;28;20189;-69
2022/11/16 06:50:46;;;;;;;61.50;45.50;;;;;;;5.79;73.06;94470.31;5070018;28;20218;-69
2022/11/16 06:53:12;;;;;;;64.77;46.07;;;;;;;5.89;73.13;94484.22;5070795;28;20210;-67
2022/11/16 06:55:37;;;;;;;65.30;48.80;;;;;;;5.81;73.16;94472.81;5066671;28;20185;-67
2022/11/16 06:58:03;;;;;;;71.10;47.40;;;;;;;5.88;73.08;94472.13;5064360;28;20237;-69
2022/11/16 07:00:28;;;;;;;63.57;47.10;;;;;;;5.96;72.82;94467.09;5068629;28;20223;-69
2022/11/16 07:02:54;;;;;;;71.33;48.93;;;;;;;6.21;72.41;94477.09;5066434;28;20257;-69
2022/11/16 07:05:19;;;;;;;72.07;48.40;;;;;;;5.99;72.99;94476.44;5071753;28;20188;-69
2022/11/16 07:07:45;;;;;;;65.23;45.90;;;;;;;6.11;72.85;94474.50;5066494;28;20248;-70
2022/11/16 07:10:11;;;;;;;67.63;47.97;;;;;;;5.90;73.71;94471.97;5071730;28;20184;-69
2022/11/16 07:12:37;;;;;;;65.63;46.63;;;;;;;6.07;72.99;94468.75;5061705;28;20237;-69
2022/11/16 07:15:03;;;;;;;67.70;48.10;;;;;;;6.27;72.50;94477.38;5061940;28;20192;-71
2022/11/16 07:17:28;;;;;;;71.03;47.60;;;;;;;6.21;72.46;94464.88;5054911;28;20182;-71
2022/11/16 07:19:54;;;;;;;70.27;46.87;;;;;;;6.39;72.45;94470.22;5066051;28;20250;-72
2022/11/16 07:22:19;;;;;;;68.23;47.57;;;;;;;6.50;71.95;94470.06;5060115;28;20193;-69
2022/11/16 07:24:45;;;;;;;71.10;46.57;;;;;;;6.57;71.53;94465.91;5059094;28;20241;-70
2022/11/16 07:27:10;;;;;;;68.83;46.73;;;;;;;6.53;71.87;94469.78;5050379;28;20197;-68
2022/11/16 07:29:35;;;;;;;68.10;44.60;;;;;;;6.57;71.92;94458.06;5062915;28;20331;-69
2022/11/16 07:32:01;;;;;;;67.07;43.87;;;;;;;6.68;71.53;94466.72;5061598;28;20189;-69
2022/11/16 07:34:26;;;;;;;74.17;46.50;;;;;;;6.75;71.37;94457.34;5062366;28;20189;-72
2022/11/16 07:36:52;;;;;;;72.53;45.20;;;;;;;6.84;71.39;94461.72;5061255;28;20223;-70
2022/11/16 07:39:17;;;;;;;71.57;45.03;;;;;;;6.81;71.47;94447.13;5061902;28;20212;-71
2022/11/16 07:41:43;;;;;;;66.23;43.03;;;;;;;7.04;70.88;94452.03;5062103;28;20669;-72
2022/11/16 07:44:09;;;;;;;63.47;43.17;;;;;;;7.20;70.07;94454.03;5061338;28;20197;-72
2022/11/16 07:46:36;;;;;;;71.03;44.13;;;;;;;7.08;70.29;94448.13;5066789;28;20331;-73
2022/11/16 07:49:03;;;;;;;60.10;42.70;;;;;;;7.14;70.34;94458.03;5060875;28;20280;-71
2022/11/16 07:51:28;;;;;;;64.57;42.77;;;;;;;7.29;69.88;94451.34;5061197;28;20184;-71
2022/11/16 07:53:54;;;;;;;73.93;43.30;;;;;;;7.34;69.38;94444.84;5063082;28;20197;-71
2022/11/16 07:56:20;;;;;;;67.83;44.73;;;;;;;7.17;69.84;94436.81;5063888;28;20195;-71
2022/11/16 07:58:46;;;;;;;69.57;43.37;;;;;;;7.09;70.29;94430.69;5063245;28;20272;-69
2022/11/16 08:01:13;;;;;;;65.20;43.77;;;;;;;6.76;71.78;94444.16;5060095;28;20205;-70
2022/11/16 08:03:40;;;;;;;71.10;44.33;;;;;;;6.82;72.56;94442.75;5064348;28;20200;-68
2022/11/16 08:06:27;;;;;;;69.53;44.23;;;;;;;7.22;71.66;94442.44;5061774;28;20185;-69
2022/11/16 08:08:52;;;;;;;73.30;45.20;;;;;;;7.26;71.07;94440.34;5056297;28;20565;-69
2022/11/16 08:11:18;;;;;;;71.33;45.97;;;;;;;7.28;70.94;94439.25;5061317;28;20214;-72
2022/11/16 08:13:44;;;;;;;70.77;47.00;;;;;;;7.22;70.93;94426.75;5062457;28;20185;-66
2022/11/16 08:16:13;;;;;;;69.60;44.90;;;;;;;7.26;70.78;94424.66;5071643;28;20257;-71
2022/11/16 08:18:40;;;;;;;73.57;45.97;;;;;;;7.54;70.53;94432.47;5067416;28;20234;-69
2022/11/16 08:21:07;;;;;;;71.77;43.13;;;;;;;7.53;69.83;94415.16;5067069;28;20279;-69
2022/11/16 08:23:33;;;;;;;81.87;48.70;;;;;;;7.68;69.89;94417.09;5068367;28;20282;-69
2022/11/16 08:26:01;;;;;;;73.57;46.60;;;;;;;7.80;68.88;94415.06;5074883;28;20282;-69
2022/11/16 08:28:28;;;;;;;74.77;46.83;;;;;;;7.88;68.82;94412.53;5071656;28;20189;-68
2022/11/16 08:30:54;;;;;;;72.17;43.97;;;;;;;7.74;69.46;94416.50;5066842;28;20184;-69
2022/11/16 08:33:20;;;;;;;73.73;45.93;;;;;;;7.73;69.40;94412.25;5068251;28;20187;-68
2022/11/16 08:35:49;;;;;;;73.87;48.40;;;;;;;7.68;70.04;94413.66;5069651;28;20238;-69
2022/11/16 08:38:17;;;;;;;69.63;45.70;;;;;;;7.87;69.23;94404.84;5067094;28;20199;-69
2022/11/16 08:40:43;;;;;;;73.33;46.77;;;;;;;8.07;68.99;94406.34;5066309;28;20695;-69
2022/11/16 08:43:09;;;;;;;72.87;46.40;;;;;;;8.04;68.75;94400.56;5061802;28;20196;-70
2022/11/16 08:45:36;;;;;;;71.53;44.87;;;;;;;7.99;69.20;94408.88;5071550;28;20200;-70
2022/11/16 08:48:01;;;;;;;72.03;45.67;;;;;;;8.07;68.90;94402.88;5069654;28;20229;-68
2022/11/16 08:50:27;;;;;;;69.17;44.03;;;;;;;8.21;68.54;94407.59;5072669;28;20184;-68
2022/11/16 08:52:52;;;;;;;72.90;43.77;;;;;;;7.87;69.46;94405.66;5066445;28;20195;-68
2022/11/16 08:55:18;;;;;;;69.60;45.40;;;;;;;7.74;69.82;94394.75;5067049;28;20279;-68
2022/11/16 08:57:44;;;;;;;67.33;45.23;;;;;;;8.18;69.18;94410.53;5064754;28;20191;-67
2022/11/16 09:00:10;;;;;;;68.97;45.33;;;;;;;8.31;68.63;94399.63;5066905;28;20286;-67
2022/11/16 09:02:36;;;;;;;63.60;43.40;;;;;;;8.51;67.92;94395.06;5071158;28;20196;-67
2022/11/16 09:05:02;;;;;;;67.47;43.77;;;;;;;8.70;67.27;94400.06;5071259;28;20245;-67
2022/11/16 09:07:28;;;;;;;61.57;42.87;;;;;;;8.93;66.99;94395.13;5057442;28;20213;-67
2022/11/16 09:09:53;;;;;;;60.43;40.77;;;;;;;9.15;66.38;94409.47;5069069;28;20287;-67
2022/11/16 09:12:19;;;;;;;60.00;40.27;;;;;;;9.19;66.03;94395.03;5062641;28;20251;-72
2022/11/16 09:14:44;;;;;;;59.00;39.03;;;;;;;9.37;65.76;94386.25;5058330;28;20192;-70
2022/11/16 09:17:10;;;;;;;65.67;40.00;;;;;;;9.41;65.84;94380.53;5061122;28;20283;-70
2022/11/16 09:19:35;;;;;;;61.17;37.63;;;;;;;9.45;65.62;94373.97;5059978;28;20200;-69
2022/11/16 09:22:01;;;;;;;59.53;38.00;;;;;;;9.43;65.66;94370.69;5056730;28;20291;-68
2022/11/16 09:24:26;;;;;;;61.00;37.27;;;;;;;9.20;66.77;94370.47;5054073;28;20228;-68
2022/11/16 09:26:52;;;;;;;50.00;35.27;;;;;;;9.33;66.53;94361.31;5058485;28;20184;-69
2022/11/16 09:29:17;;;;;;;58.83;37.03;;;;;;;9.35;66.57;94357.53;5062491;28;20189;-69
2022/11/16 09:31:43;;;;;;;55.97;36.20;;;;;;;9.33;66.86;94349.03;5063271;28;20192;-68
2022/11/16 09:34:08;;;;;;;51.17;35.30;;;;;;;9.31;67.16;94351.00;5068303;28;20192;-68
2022/11/16 09:36:34;;;;;;;48.97;36.37;;;;;;;9.28;67.13;94336.38;5064433;28;20276;-69
2022/11/16 09:38:59;;;;;;;56.17;35.67;;;;;;;9.67;66.22;94337.59;5068864;28;20189;-69
2022/11/16 09:41:41;;;;;;;52.13;36.17;;;;;;;9.58;66.62;94331.53;5060924;28;20257;-69
2022/11/16 09:44:34;;;;;;;47.20;33.90;;;;;;;9.50;66.71;94313.16;5064134;28;20199;-70
2022/11/16 09:47:01;;;;;;;48.10;32.57;;;;;;;9.63;66.04;94323.16;5062680;28;20196;-68
2022/11/16 09:49:38;;;;;;;47.93;33.30;;;;;;;9.68;66.15;94324.31;5068530;28;20196;-70
2022/11/16 09:52:25;;;;;;;48.17;34.60;;;;;;;9.67;65.75;94322.66;5061639;28;20188;-67
2022/11/16 09:54:52;;;;;;;47.50;32.97;;;;;;;9.59;66.20;94322.66;5064061;28;20189;-68
2022/11/16 09:57:23;;;;;;;48.27;32.83;;;;;;;9.54;66.37;94309.19;5059029;28;20186;-69
2022/11/16 09:59:56;;;;;;;45.13;33.60;;;;;;;9.30;67.40;94307.34;5065666;28;20344;-69
2022/11/16 10:02:31;;;;;;;50.70;35.13;;;;;;;9.31;67.46;94297.72;5067102;28;20185;-68
2022/11/16 10:05:35;;;;;;;52.67;36.90;;;;;;;9.00;68.71;94301.72;5069613;28;20193;-68
2022/11/16 10:08:34;;;;;;;53.63;36.27;;;;;;;9.06;68.64;94297.63;5061321;28;20260;-70
2022/11/16 10:11:15;;;;;;;53.70;37.30;;;;;;;9.19;68.28;94284.88;5061652;28;20192;-70
2022/11/16 10:14:15;;;;;;;51.37;35.93;;;;;;;9.09;68.72;94276.34;5045482;28;20231;-69
2022/11/16 10:16:59;;;;;;;46.73;34.57;;;;;;;9.20;68.32;94269.97;5047631;28;20193;-70
2022/11/16 10:19:39;;;;;;;48.40;34.73;;;;;;;9.20;68.33;94273.41;5045348;28;20212;-71
2022/11/16 10:22:17;;;;;;;46.23;34.50;;;;;;;9.13;68.68;94264.53;5040737;28;20563;-70
2022/11/16 10:25:00;;;;;;;51.20;35.43;;;;;;;9.17;68.47;94260.63;5044579;28;20197;-70
2022/11/16 10:28:03;;;;;;;48.57;34.27;;;;;;;9.12;68.74;94260.28;5044663;28;20193;-69
2022/11/16 10:30:36;;;;;;;49.07;36.50;;;;;;;9.03;69.00;94254.22;4987662;28;20274;-69
2022/11/16 10:33:09;;;;;;;49.00;36.10;;;;;;;9.06;68.99;94250.44;4969265;28;20198;-69
2022/11/16 10:35:40;;;;;;;49.70;34.60;;;;;;;9.01;69.15;94240.44;4988179;28;20219;-69
2022/11/16 10:38:17;;;;;;;45.17;34.93;;;;;;;8.96;69.51;94241.91;4989638;28;20187;-70
2022/11/16 10:40:48;;;;;;;47.00;35.70;;;;;;;9.00;69.44;94240.59;5002617;28;20545;-70
2022/11/16 10:43:16;;;;;;;54.37;37.60;;;;;;;8.98;69.43;94240.78;4989616;28;20197;-72
2022/11/16 10:46:15;;;;;;;50.13;36.10;;;;;;;9.03;69.33;94237.63;4990950;28;20218;-71
2022/11/16 10:48:57;;;;;;;50.13;36.97;;;;;;;9.07;69.34;94240.78;4985953;28;20229;-70
2022/11/16 10:51:22;;;;;;;50.50;35.73;;;;;;;9.24;69.22;94240.63;5007173;28;20190;-72
2022/11/16 10:53:48;;;;;;;51.10;39.43;;;;;;;9.25;68.33;94237.03;5007045;28;20253;-72
2022/11/16 10:56:13;;;;;;;50.53;39.03;;;;;;;9.49;67.87;94228.34;4988283;28;20187;-73
2022/11/16 10:58:52;;;;;;;54.03;40.00;;;;;;;9.61;67.54;94225.38;5008181;28;20195;-73
2022/11/16 11:01:56;;;;;;;44.53;35.17;;;;;;;9.79;66.61;94217.34;4986251;28;20248;-72
2022/11/16 11:04:30;;;;;;;47.83;34.97;;;;;;;10.06;65.69;94216.94;4987042;28;20226;-71
2022/11/16 11:06:59;;;;;;;48.57;34.70;;;;;;;10.18;65.32;94211.31;5017361;28;20193;-70
2022/11/16 11:09:34;;;;;;;44.30;35.00;;;;;;;10.35;64.69;94197.19;5048864;28;20197;-70
2022/11/16 11:15:09;;;;;;;43.27;33.23;;;;;;;10.76;63.35;94197.00;5064200;28;20254;-68
2022/11/16 11:17:37;;;;;;;45.27;32.70;;;;;;;10.66;63.04;94191.13;5061444;28;20229;-69
2022/11/16 11:20:23;;;;;;;43.93;34.00;;;;;;;10.69;63.57;94177.63;5054760;28;20200;-66
2022/11/16 11:22:56;;;;;;;40.40;31.40;;;;;;;10.65;63.47;94186.88;5060140;28;20219;-68
2022/11/16 11:25:24;;;;;;;41.33;30.90;;;;;;;10.54;63.88;94173.13;5060931;28;20185;-68
2022/11/16 11:27:51;;;;;;;39.27;32.13;;;;;;;10.74;63.52;94164.78;5072134;28;20177;-67
2022/11/16 11:30:19;;;;;;;39.83;32.00;;;;;;;10.89;62.96;94157.78;5067787;28;20192;-64
2022/11/16 11:32:46;;;;;;;40.93;31.53;;;;;;;11.07;62.20;94154.88;5060442;28;20185;-64
2022/11/16 11:35:31;;;;;;;39.43;32.90;;;;;;;11.03;62.03;94158.84;5070252;28;20204;-69
2022/11/16 11:38:00;;;;;;;40.50;32.37;;;;;;;11.17;61.95;94165.16;5064035;28;20191;-69
2022/11/16 11:40:31;;;;;;;42.40;31.73;;;;;;;11.44;61.73;94161.97;5057716;28;20221;-67
2022/11/16 11:43:02;;;;;;;38.77;31.00;;;;;;;11.29;61.55;94161.13;5061811;28;20194;-66
2022/11/16 11:46:07;;;;;;;43.87;33.10;;;;;;;11.57;60.73;94160.53;5060657;28;20189;-66
2022/11/16 11:48:39;;;;;;;40.90;30.97;;;;;;;11.38;61.12;94148.69;5066359;28;20704;-66
2022/11/16 11:51:38;;;;;;;49.60;33.13;;;;;;;11.19;62.01;94147.38;5060059;28;20172;-66
2022/11/16 11:54:14;;;;;;;42.87;33.20;;;;;;;11.25;61.72;94138.75;5060604;28;20239;-67
2022/11/16 11:56:40;;;;;;;43.03;32.93;;;;;;;11.30;62.17;94132.97;5067099;28;20184;-70
2022/11/16 11:59:05;;;;;;;43.60;33.17;;;;;;;11.46;61.56;94130.19;5077066;28;20188;-71
2022/11/16 12:02:24;;;;;;;47.47;35.77;;;;;;;11.64;61.07;94114.06;5074724;28;20247;-71
2022/11/16 12:05:08;;;;;;;45.93;35.33;;;;;;;11.82;60.57;94113.72;4990767;28;20198;-70
2022/11/16 12:07:45;;;;;;;44.67;32.90;;;;;;;11.54;61.53;94113.50;4977167;28;20188;-70
2022/11/16 12:10:17;;;;;;;45.10;34.63;;;;;;;11.37;62.18;94112.84;4992654;28;20198;-70
2022/11/16 12:12:55;;;;;;;46.37;33.97;;;;;;;11.51;62.00;94113.88;4985595;28;20228;-68
2022/11/16 12:15:51;;;;;;;45.20;34.73;;;;;;;11.35;62.98;94115.66;4986629;28;20239;-68
2022/11/16 12:18:41;;;;;;;44.20;35.23;;;;;;;11.18;63.17;94107.09;4971907;28;20219;-66
2022/11/16 12:21:12;;;;;;;44.13;34.63;;;;;;;11.12;63.59;94102.56;4970943;28;20203;-67